createdAt,value
2023-03-16T00:01:39.120Z,149031.44
2023-03-16T00:04:04.940Z,149012.59
2023-03-16T00:06:30.785Z,149056.59
2023-03-16T00:08:58.403Z,149040.25
2023-03-16T00:11:27.866Z,149026.41
2023-03-16T00:13:53.680Z,149066.63
2023-03-16T00:16:19.606Z,148989.97
2023-03-16T00:18:45.712Z,148988.72
2023-03-16T00:21:13.353Z,148996.25
2023-03-16T00:23:39.544Z,148956.06
2023-03-16T00:26:08.198Z,148968.63
2023-03-16T00:28:35.313Z,148972.41
2023-03-16T00:31:06.322Z,148971.16
2023-03-16T00:33:38.346Z,148971.16
2023-03-16T00:36:08.466Z,148961.06
2023-03-16T00:38:44.608Z,148987.47
2023-03-16T00:41:13.607Z,148951.06
2023-03-16T00:43:40.201Z,148963.59
2023-03-16T00:46:08.137Z,148963.59
2023-03-16T00:48:35.611Z,148963.59
2023-03-16T00:51:03.648Z,148976.16
2023-03-16T00:53:30.605Z,148966.13
2023-03-16T00:55:56.440Z,148993.75
2023-03-16T00:58:22.550Z,148957.31
2023-03-16T01:00:48.429Z,148943.50
2023-03-16T01:03:14.252Z,148930.97
2023-03-16T01:05:41.365Z,148925.91
2023-03-16T01:08:08.372Z,148957.31
2023-03-16T01:10:35.169Z,148957.31
2023-03-16T01:13:02.424Z,148958.56
2023-03-16T01:15:29.931Z,148993.75
2023-03-16T01:17:56.398Z,148968.63
2023-03-16T01:20:22.845Z,148948.53
2023-03-16T01:22:48.650Z,148958.56
2023-03-16T01:25:14.431Z,148935.97
2023-03-16T01:27:41.513Z,148952.31
2023-03-16T01:30:11.606Z,148944.75
2023-03-16T01:32:39.142Z,148932.22
2023-03-16T01:35:06.890Z,148967.38
2023-03-16T01:37:32.748Z,148964.84
2023-03-16T01:39:58.534Z,148986.22
2023-03-16T01:42:24.281Z,148968.63
2023-03-16T01:44:55.830Z,148957.31
2023-03-16T01:47:22.512Z,148962.31
2023-03-16T01:49:54.174Z,148935.97
2023-03-16T01:52:32.740Z,148967.38
2023-03-16T01:55:03.950Z,148925.91
2023-03-16T01:57:38.796Z,148933.47
2023-03-16T02:00:15.033Z,148928.41
2023-03-16T02:02:43.467Z,148932.22
2023-03-16T02:05:16.586Z,148981.16
2023-03-16T02:07:51.527Z,148971.16
2023-03-16T02:10:19.705Z,148940.97
2023-03-16T02:12:46.325Z,148943.50
2023-03-16T02:15:13.584Z,148948.53
2023-03-16T02:17:42.980Z,148935.97
2023-03-16T02:20:11.564Z,148961.06
2023-03-16T02:22:42.144Z,148986.22
2023-03-16T02:25:08.764Z,148972.41
2023-03-16T02:27:46.329Z,148987.47
2023-03-16T02:30:18.472Z,148968.63
2023-03-16T02:32:47.393Z,148949.78
2023-03-16T02:35:13.609Z,148944.75
2023-03-16T02:37:41.133Z,148974.91
2023-03-16T02:40:25.959Z,148961.06
2023-03-16T02:43:12.272Z,148998.75
2023-03-16T02:45:59.487Z,149006.31
2023-03-16T02:48:34.008Z,148974.91
2023-03-16T02:51:00.075Z,148938.47
2023-03-16T02:53:25.939Z,148915.88
2023-03-16T02:55:52.082Z,148917.13
2023-03-16T02:58:18.573Z,148971.16
2023-03-16T03:00:45.074Z,148933.47
2023-03-16T03:03:11.266Z,148920.88
2023-03-16T03:05:37.413Z,148938.47
2023-03-16T03:08:04.592Z,148895.78
2023-03-16T03:10:30.508Z,148928.41
2023-03-16T03:12:56.818Z,148917.13
2023-03-16T03:15:23.135Z,148961.06
2023-03-16T03:17:49.161Z,148937.22
2023-03-16T03:20:18.995Z,148928.41
2023-03-16T03:22:47.616Z,148947.25
2023-03-16T03:25:16.455Z,148966.13
2023-03-16T03:27:42.915Z,148962.31
2023-03-16T03:30:12.126Z,148957.31
2023-03-16T03:32:39.043Z,148939.72
2023-03-16T03:35:05.809Z,148917.13
2023-03-16T03:37:32.025Z,148905.81
2023-03-16T03:39:57.847Z,148954.81
2023-03-16T03:42:23.855Z,148953.56
2023-03-16T03:44:50.915Z,148933.47
2023-03-16T03:47:17.273Z,148868.13
2023-03-16T03:49:43.095Z,148884.47
2023-03-16T03:52:08.978Z,148874.41
2023-03-16T03:54:34.875Z,148909.56
2023-03-16T03:57:00.737Z,148904.56
2023-03-16T03:59:26.529Z,148913.38
2023-03-16T04:01:53.086Z,148914.63
2023-03-16T04:04:19.964Z,148923.41
2023-03-16T04:06:46.292Z,148915.88
2023-03-16T04:09:12.222Z,148933.47
2023-03-16T04:11:38.397Z,148943.50
2023-03-16T04:14:05.026Z,148934.72
2023-03-16T04:16:31.209Z,148934.72
2023-03-16T04:18:57.699Z,148935.97
2023-03-16T04:21:24.006Z,148962.31
2023-03-16T04:23:53.493Z,148956.06
2023-03-16T04:26:24.877Z,148923.41
2023-03-16T04:28:51.929Z,148939.72
2023-03-16T04:31:17.908Z,148966.13
2023-03-16T04:33:43.942Z,148937.22
2023-03-16T04:36:09.956Z,148922.16
2023-03-16T04:38:35.957Z,148927.16
2023-03-16T04:41:04.053Z,148944.75
2023-03-16T04:43:33.505Z,148973.66
2023-03-16T04:46:03.518Z,148977.41
2023-03-16T04:48:31.878Z,148997.50
2023-03-16T04:50:58.921Z,149010.06
2023-03-16T04:53:24.734Z,148997.50
2023-03-16T04:55:50.546Z,148973.66
2023-03-16T04:58:16.486Z,149005.06
2023-03-16T05:00:42.405Z,148981.16
2023-03-16T05:03:09.721Z,148993.75
2023-03-16T05:05:37.770Z,148948.53
2023-03-16T05:08:05.320Z,148935.97
2023-03-16T05:10:32.652Z,148957.31
2023-03-16T05:12:59.082Z,148964.84
2023-03-16T05:15:25.175Z,148925.91
2023-03-16T05:17:50.995Z,148933.47
2023-03-16T05:20:17.462Z,148951.06
2023-03-16T05:22:45.759Z,148937.22
2023-03-16T05:25:15.185Z,148913.38
2023-03-16T05:27:45.635Z,148924.66
2023-03-16T05:30:13.139Z,148942.22
2023-03-16T05:32:39.421Z,148967.38
2023-03-16T05:35:06.446Z,148952.31
2023-03-16T05:37:34.065Z,148959.81
2023-03-16T05:40:00.802Z,148963.59
2023-03-16T05:42:26.616Z,148948.53
2023-03-16T05:44:53.068Z,148922.16
2023-03-16T05:47:19.465Z,148963.59
2023-03-16T05:49:45.318Z,148949.78
2023-03-16T05:52:11.452Z,148943.50
2023-03-16T05:54:37.379Z,148947.25
2023-03-16T05:57:06.042Z,148966.13
2023-03-16T05:59:32.104Z,148938.47
2023-03-16T06:01:57.870Z,148918.38
2023-03-16T06:04:23.787Z,148908.31
2023-03-16T06:06:49.589Z,148943.50
2023-03-16T06:09:15.382Z,148935.97
2023-03-16T06:11:41.172Z,148938.47
2023-03-16T06:14:06.994Z,148974.91
2023-03-16T06:16:32.896Z,148932.22
2023-03-16T06:18:59.953Z,148974.91
2023-03-16T06:21:26.201Z,148987.47
2023-03-16T06:23:52.070Z,148997.50
2023-03-16T06:26:17.929Z,148969.88
2023-03-16T06:28:43.863Z,148998.75
2023-03-16T06:31:10.347Z,149040.25
2023-03-16T06:33:37.915Z,149033.94
2023-03-16T06:36:04.374Z,149028.91
2023-03-16T06:38:30.320Z,149041.50
2023-03-16T06:40:56.124Z,149015.09
2023-03-16T06:43:21.966Z,148971.16
2023-03-16T06:45:47.788Z,148979.91
2023-03-16T06:48:13.650Z,148986.22
2023-03-16T06:50:39.460Z,149006.31
2023-03-16T06:53:05.296Z,149046.50
2023-03-16T06:55:31.067Z,149033.94
2023-03-16T06:57:56.850Z,149042.75
2023-03-16T07:00:23.047Z,149091.78
2023-03-16T07:02:48.785Z,149090.47
2023-03-16T07:05:14.659Z,149105.56
2023-03-16T07:07:42.150Z,149098.03
2023-03-16T07:10:12.047Z,149076.69
2023-03-16T07:12:37.970Z,149064.09
2023-03-16T07:15:04.263Z,149061.59
2023-03-16T07:17:31.527Z,149084.22
2023-03-16T07:19:57.427Z,149077.94
2023-03-16T07:22:23.413Z,149105.56
2023-03-16T07:24:56.552Z,149131.97
2023-03-16T07:27:23.504Z,149172.19
2023-03-16T07:29:51.290Z,149162.13
2023-03-16T07:32:17.896Z,149124.41
2023-03-16T07:34:43.701Z,149139.50
2023-03-16T07:37:10.212Z,149157.09
2023-03-16T07:39:36.428Z,149149.56
2023-03-16T07:42:02.654Z,149169.69
2023-03-16T07:44:28.956Z,149198.63
2023-03-16T07:46:54.833Z,149165.94
2023-03-16T07:49:20.787Z,149198.63
2023-03-16T07:51:46.818Z,149197.31
2023-03-16T07:54:13.295Z,149193.56
2023-03-16T07:56:48.916Z,149204.88
2023-03-16T07:59:15.539Z,149247.63
2023-03-16T08:01:41.294Z,149225.00
2023-03-16T08:04:07.107Z,149231.25
2023-03-16T08:06:32.890Z,149257.69
2023-03-16T08:08:59.387Z,149344.47
2023-03-16T08:11:26.407Z,149393.50
2023-03-16T08:13:55.969Z,149379.69
2023-03-16T08:16:23.295Z,149375.88
2023-03-16T08:18:51.168Z,149394.75
2023-03-16T08:21:18.138Z,149411.09
2023-03-16T08:23:48.519Z,149426.22
2023-03-16T08:26:19.537Z,149413.66
2023-03-16T08:28:46.692Z,149438.81
2023-03-16T08:31:14.489Z,149457.66
2023-03-16T08:33:42.368Z,149417.44
2023-03-16T08:36:11.202Z,149423.69
2023-03-16T08:38:39.305Z,149412.34
2023-03-16T08:41:05.638Z,149437.53
2023-03-16T08:43:31.944Z,149466.50
2023-03-16T08:45:58.747Z,149452.66
2023-03-16T08:48:25.784Z,149476.53
2023-03-16T08:50:53.211Z,149456.41
2023-03-16T08:53:20.336Z,149399.81
2023-03-16T08:55:46.928Z,149437.53
2023-03-16T08:58:14.596Z,149455.16
2023-03-16T09:00:40.824Z,149456.41
2023-03-16T09:03:06.962Z,149451.41
2023-03-16T09:05:34.240Z,149465.19
2023-03-16T09:08:00.850Z,149465.19
2023-03-16T09:10:27.372Z,149440.06
2023-03-16T09:12:53.708Z,149461.44
2023-03-16T09:15:20.321Z,149506.75
2023-03-16T09:17:47.286Z,149506.75
2023-03-16T09:20:26.863Z,149508.00
2023-03-16T09:22:55.944Z,149490.41
2023-03-16T09:25:23.438Z,149481.56
2023-03-16T09:27:49.982Z,149494.16
2023-03-16T09:30:16.327Z,149494.16
2023-03-16T09:32:42.385Z,149489.16
2023-03-16T09:35:08.428Z,149539.47
2023-03-16T09:37:44.768Z,149534.41
2023-03-16T09:40:24.240Z,149563.38
2023-03-16T09:43:02.245Z,149536.94
2023-03-16T09:45:39.523Z,149594.88
2023-03-16T09:48:05.756Z,149552.03
2023-03-16T09:50:47.748Z,149587.28
2023-03-16T09:53:30.119Z,149613.75
2023-03-16T09:56:03.352Z,149675.41
2023-03-16T09:58:31.473Z,149701.88
2023-03-16T10:01:16.110Z,149750.97
2023-03-16T10:04:24.276Z,149800.09
2023-03-16T10:07:11.470Z,149874.41
2023-03-16T10:09:46.868Z,149999.16
2023-03-16T10:12:13.923Z,150064.72
2023-03-16T10:14:56.797Z,150149.22
2023-03-16T10:17:57.208Z,150300.59
2023-03-16T10:20:24.023Z,150300.59
2023-03-16T10:22:52.027Z,150363.72
2023-03-16T10:25:45.517Z,150349.81
2023-03-16T10:28:21.041Z,150328.38
2023-03-16T10:30:48.771Z,150267.75
2023-03-16T10:33:30.751Z,150334.66
2023-03-16T10:36:33.855Z,150298.09
2023-03-16T10:39:04.568Z,150421.75
2023-03-16T10:41:36.481Z,150505.03
2023-03-16T10:44:24.410Z,150510.09
2023-03-16T10:46:59.523Z,150563.13
2023-03-16T10:49:27.408Z,150511.38
2023-03-16T10:51:57.284Z,150544.19
2023-03-16T10:54:36.425Z,150796.81
2023-03-16T10:57:30.617Z,150742.47
2023-03-16T11:00:06.438Z,150594.66
2023-03-16T11:02:36.064Z,150626.25
2023-03-16T11:05:32.665Z,150448.22
2023-03-16T11:08:10.205Z,150357.38
2023-03-16T11:10:49.343Z,150322.03
2023-03-16T11:13:20.254Z,150195.84
2023-03-16T11:15:49.977Z,150218.53
2023-03-16T11:18:26.603Z,150181.97
2023-03-16T11:20:54.464Z,150202.19
2023-03-16T11:23:28.737Z,150185.78
2023-03-16T11:25:58.448Z,150165.63
2023-03-16T11:28:34.604Z,150091.19
2023-03-16T11:31:13.142Z,150151.72
2023-03-16T11:33:39.588Z,150184.53
2023-03-16T11:36:15.357Z,150181.97
2023-03-16T11:38:51.541Z,150164.31
2023-03-16T11:41:32.874Z,150137.84
2023-03-16T11:44:14.959Z,150140.38
2023-03-16T11:47:19.222Z,150171.91
2023-03-16T11:50:05.171Z,150271.50
2023-03-16T11:52:43.925Z,150337.19
2023-03-16T11:55:16.000Z,150359.88
2023-03-16T11:58:17.303Z,150337.19
2023-03-16T12:01:01.091Z,150376.28
2023-03-16T12:03:53.185Z,150399.03
2023-03-16T12:06:29.929Z,150613.59
2023-03-16T12:09:37.081Z,150861.22
2023-03-16T12:12:28.713Z,150895.41
2023-03-16T12:15:16.393Z,151062.25
2023-03-16T12:17:44.567Z,151235.56
2023-03-16T12:20:22.619Z,151506.47
2023-03-16T12:22:54.810Z,151756.03
2023-03-16T12:25:24.916Z,151901.78
2023-03-16T12:27:53.728Z,152084.38
2023-03-16T12:30:35.443Z,152107.22
2023-03-16T12:33:23.833Z,152173.22
2023-03-16T12:36:29.956Z,151986.75
2023-03-16T12:39:11.208Z,151756.03
2023-03-16T12:41:44.657Z,151932.22
2023-03-16T12:44:20.184Z,151939.81
2023-03-16T12:46:56.932Z,152168.16
2023-03-16T12:49:24.379Z,152253.16
2023-03-16T12:52:11.842Z,152234.09
2023-03-16T12:54:49.006Z,152156.72
2023-03-16T12:57:16.404Z,151726.84
2023-03-16T12:59:49.828Z,151469.75
2023-03-16T13:02:31.804Z,151430.50
2023-03-16T13:05:02.075Z,151259.59
2023-03-16T13:07:31.152Z,151260.84
2023-03-16T13:10:03.587Z,151211.53
2023-03-16T13:12:32.091Z,151222.91
2023-03-16T13:14:58.731Z,151109.06
2023-03-16T13:17:32.944Z,151073.66
2023-03-16T13:20:02.552Z,151038.25
2023-03-16T13:22:40.200Z,150999.06
2023-03-16T13:25:14.722Z,150978.84
2023-03-16T13:27:45.200Z,150963.66
2023-03-16T13:30:31.765Z,150921.97
2023-03-16T13:33:27.612Z,150896.66
2023-03-16T13:35:56.770Z,150921.97
2023-03-16T13:38:30.643Z,150911.84
2023-03-16T13:41:02.444Z,150966.19
2023-03-16T13:43:36.412Z,150876.41
2023-03-16T13:46:14.129Z,150872.63
2023-03-16T13:48:40.957Z,150957.38
2023-03-16T13:51:15.447Z,151063.56
2023-03-16T13:53:42.601Z,150988.94
2023-03-16T13:56:14.152Z,151015.50
2023-03-16T13:58:43.253Z,151073.66
2023-03-16T14:01:30.325Z,151259.59
2023-03-16T14:03:59.775Z,151357.09
2023-03-16T14:06:28.492Z,151445.72
2023-03-16T14:09:04.799Z,151405.22
2023-03-16T14:11:31.023Z,151355.84
2023-03-16T14:13:58.553Z,151308.94
2023-03-16T14:16:28.115Z,151165.97
2023-03-16T14:18:58.127Z,151134.34
2023-03-16T14:21:30.757Z,151144.47
2023-03-16T14:23:59.521Z,151098.94
2023-03-16T14:26:26.382Z,151095.16
2023-03-16T14:29:07.759Z,151106.53
2023-03-16T14:31:37.672Z,151164.72
2023-03-16T14:34:08.080Z,151197.63
2023-03-16T14:36:36.708Z,151221.63
2023-03-16T14:39:18.668Z,151222.91
2023-03-16T14:41:49.025Z,151109.06
2023-03-16T14:44:28.046Z,151222.91
2023-03-16T14:46:58.558Z,151188.75
2023-03-16T14:49:32.471Z,151167.25
2023-03-16T14:52:07.368Z,151136.91
2023-03-16T14:54:33.409Z,151165.97
2023-03-16T14:57:01.999Z,151121.72
2023-03-16T14:59:27.799Z,151150.78
2023-03-16T15:01:54.549Z,151133.09
2023-03-16T15:04:33.598Z,151119.22
2023-03-16T15:07:01.424Z,151077.44
2023-03-16T15:09:32.688Z,151039.50
2023-03-16T15:11:58.738Z,151078.69
2023-03-16T15:14:44.811Z,151033.22
2023-03-16T15:17:11.056Z,150986.41
2023-03-16T15:19:37.039Z,151039.50
2023-03-16T15:22:04.519Z,151102.75
2023-03-16T15:24:32.560Z,151178.63
2023-03-16T15:26:59.139Z,151188.75
2023-03-16T15:29:24.922Z,151119.22
2023-03-16T15:31:52.764Z,151034.47
2023-03-16T15:34:20.867Z,151044.56
2023-03-16T15:36:46.737Z,151029.44
2023-03-16T15:39:21.368Z,151006.63
2023-03-16T15:41:48.057Z,150943.44
2023-03-16T15:44:14.231Z,150920.69
2023-03-16T15:46:40.802Z,150884.00
2023-03-16T15:49:07.534Z,150932.06
2023-03-16T15:51:33.445Z,150906.78
2023-03-16T15:54:02.816Z,150828.34
2023-03-16T15:56:33.517Z,150838.47
2023-03-16T15:59:05.349Z,150822.06
2023-03-16T16:01:39.578Z,150796.81
2023-03-16T16:04:11.721Z,150814.50
2023-03-16T16:06:37.546Z,150798.06
2023-03-16T16:09:03.428Z,150789.19
2023-03-16T16:11:30.231Z,150809.41
2023-03-16T16:13:57.470Z,150748.78
2023-03-16T16:16:26.806Z,150767.72
2023-03-16T16:18:52.637Z,150767.72
2023-03-16T16:21:28.226Z,150791.72
2023-03-16T16:23:54.191Z,150811.97
2023-03-16T16:26:19.873Z,150790.47
2023-03-16T16:28:46.880Z,150699.50
2023-03-16T16:31:13.902Z,150665.38
2023-03-16T16:33:39.961Z,150683.06
2023-03-16T16:36:13.393Z,150652.78
2023-03-16T16:38:39.508Z,150648.97
2023-03-16T16:41:14.896Z,150652.78
2023-03-16T16:43:43.557Z,150650.28
2023-03-16T16:46:24.199Z,150661.59
2023-03-16T16:48:53.526Z,150622.47
2023-03-16T16:51:24.985Z,150623.72
2023-03-16T16:53:53.347Z,150621.22
2023-03-16T16:56:27.002Z,150607.31
2023-03-16T16:58:54.177Z,150568.19
2023-03-16T17:01:27.568Z,150542.94
2023-03-16T17:03:53.622Z,150526.53
2023-03-16T17:06:19.676Z,150529.03
2023-03-16T17:08:46.520Z,150515.16
2023-03-16T17:11:26.344Z,150529.03
2023-03-16T17:13:54.651Z,150488.66
2023-03-16T17:16:22.137Z,150535.34
2023-03-16T17:18:48.943Z,150501.25
2023-03-16T17:21:19.054Z,150493.69
2023-03-16T17:23:46.107Z,150457.09
2023-03-16T17:26:16.769Z,150464.63
2023-03-16T17:28:51.496Z,150424.25
2023-03-16T17:31:22.489Z,150399.03
2023-03-16T17:33:50.633Z,150396.47
2023-03-16T17:36:16.918Z,150404.06
2023-03-16T17:38:42.929Z,150407.84
2023-03-16T17:41:20.543Z,150414.16
2023-03-16T17:43:47.248Z,150375.03
2023-03-16T17:46:17.773Z,150402.81
2023-03-16T17:48:44.838Z,150391.44
2023-03-16T17:51:14.311Z,150366.22
2023-03-16T17:53:40.674Z,150362.41
2023-03-16T17:56:24.795Z,150366.22
2023-03-16T17:58:53.362Z,150357.38
2023-03-16T18:01:23.360Z,150303.13
2023-03-16T18:03:49.224Z,150313.22
2023-03-16T18:06:19.875Z,150286.72
2023-03-16T18:08:48.562Z,150309.47
2023-03-16T18:11:48.253Z,150309.47
2023-03-16T18:14:34.003Z,150279.13
2023-03-16T18:17:14.474Z,150271.50
2023-03-16T18:19:42.704Z,150296.81
2023-03-16T18:22:23.902Z,150257.69
2023-03-16T18:24:51.905Z,150258.94
2023-03-16T18:27:18.881Z,150260.19
2023-03-16T18:29:46.275Z,150251.34
2023-03-16T18:32:22.524Z,150242.53
2023-03-16T18:34:48.906Z,150262.72
2023-03-16T18:37:26.302Z,150240.03
2023-03-16T18:39:53.595Z,150231.16
2023-03-16T18:42:25.169Z,150217.28
2023-03-16T18:44:51.391Z,150222.34
2023-03-16T18:47:21.308Z,150217.28
2023-03-16T18:49:50.605Z,150197.09
2023-03-16T18:52:23.103Z,150187.03
2023-03-16T18:54:50.652Z,150171.91
2023-03-16T18:57:21.563Z,150159.28
2023-03-16T18:59:50.265Z,150208.47
2023-03-16T19:02:36.280Z,150150.47
2023-03-16T19:05:03.681Z,150153.00
2023-03-16T19:07:35.892Z,150161.78
2023-03-16T19:10:07.824Z,150154.25
2023-03-16T19:12:33.968Z,150205.97
2023-03-16T19:14:59.867Z,150168.13
2023-03-16T19:17:25.678Z,150202.19
2023-03-16T19:19:51.876Z,150187.03
2023-03-16T19:22:20.586Z,150154.25
2023-03-16T19:24:53.643Z,150154.25
2023-03-16T19:27:25.603Z,150153.00
2023-03-16T19:29:53.231Z,150161.78
2023-03-16T19:32:20.889Z,150165.63
2023-03-16T19:34:47.040Z,150158.03
2023-03-16T19:37:14.529Z,150151.72
2023-03-16T19:39:44.294Z,150158.03
2023-03-16T19:42:18.386Z,150135.34
2023-03-16T19:44:47.867Z,150154.25
2023-03-16T19:47:23.685Z,150161.78
2023-03-16T19:49:49.545Z,150159.28
2023-03-16T19:52:15.822Z,150151.72
2023-03-16T19:54:43.514Z,150139.09
2023-03-16T19:57:15.862Z,150163.06
2023-03-16T19:59:45.039Z,150153.00
2023-03-16T20:02:40.192Z,150153.00
2023-03-16T20:05:07.593Z,150134.06
2023-03-16T20:07:37.294Z,150126.47
2023-03-16T20:10:05.098Z,150142.88
2023-03-16T20:12:31.719Z,150105.06
2023-03-16T20:14:59.081Z,150166.88
2023-03-16T20:17:29.634Z,150147.97
2023-03-16T20:19:57.016Z,150164.31
2023-03-16T20:22:25.462Z,150149.22
2023-03-16T20:24:53.638Z,150116.41
2023-03-16T20:27:22.108Z,150116.41
2023-03-16T20:29:48.611Z,150113.91
2023-03-16T20:32:24.790Z,150125.22
2023-03-16T20:34:52.881Z,150136.59
2023-03-16T20:37:25.540Z,150132.81
2023-03-16T20:39:53.293Z,150131.56
2023-03-16T20:42:23.881Z,150137.84
2023-03-16T20:44:50.267Z,150144.13
2023-03-16T20:47:18.663Z,150137.84
2023-03-16T20:49:44.672Z,150141.63
2023-03-16T20:52:25.407Z,150127.75
2023-03-16T20:54:51.893Z,150131.56
2023-03-16T20:57:21.990Z,150123.97
2023-03-16T20:59:50.840Z,150131.56
2023-03-16T21:02:36.648Z,150144.13
2023-03-16T21:05:05.841Z,150136.59
2023-03-16T21:07:32.288Z,150154.25
2023-03-16T21:09:58.141Z,150159.28
2023-03-16T21:12:31.320Z,150187.03
2023-03-16T21:14:58.776Z,150200.88
2023-03-16T21:17:31.246Z,150171.91
2023-03-16T21:19:58.368Z,150151.72
2023-03-16T21:22:27.897Z,150141.63
2023-03-16T21:24:54.982Z,150171.91
2023-03-16T21:27:29.778Z,150158.03
2023-03-16T21:29:58.970Z,150158.03
2023-03-16T21:32:26.202Z,150155.50
2023-03-16T21:34:52.541Z,150174.41
2023-03-16T21:37:20.666Z,150169.38
2023-03-16T21:39:51.086Z,150224.88
2023-03-16T21:42:19.989Z,150185.78
2023-03-16T21:44:46.515Z,150151.72
2023-03-16T21:47:26.758Z,150149.22
2023-03-16T21:49:53.842Z,150169.38
2023-03-16T21:52:26.098Z,150169.38
2023-03-16T21:54:53.029Z,150160.53
2023-03-16T21:57:19.231Z,150161.78
2023-03-16T21:59:45.878Z,150185.78
2023-03-16T22:02:23.918Z,150178.19
2023-03-16T22:04:51.437Z,150154.25
2023-03-16T22:07:17.652Z,150175.69
2023-03-16T22:09:43.555Z,150184.53
2023-03-16T22:12:13.305Z,150184.53
2023-03-16T22:14:39.973Z,150176.94
2023-03-16T22:17:10.879Z,150193.34
2023-03-16T22:19:36.698Z,150178.19
2023-03-16T22:22:02.853Z,150184.53
2023-03-16T22:24:30.141Z,150189.56
2023-03-16T22:26:57.339Z,150190.81
2023-03-16T22:29:30.865Z,150199.63
2023-03-16T22:32:06.164Z,150198.38
2023-03-16T22:34:41.341Z,150237.50
2023-03-16T22:37:08.462Z,150223.63
2023-03-16T22:39:36.929Z,150213.50
2023-03-16T22:42:21.670Z,150209.72
2023-03-16T22:44:47.447Z,150208.47
2023-03-16T22:47:25.570Z,150202.19
2023-03-16T22:49:51.708Z,150203.44
2023-03-16T22:52:18.014Z,150211.00
2023-03-16T22:54:45.685Z,150214.75
2023-03-16T22:57:14.240Z,150195.84
2023-03-16T22:59:40.746Z,150219.84
2023-03-16T23:02:14.638Z,150207.22
2023-03-16T23:04:40.672Z,150205.97
2023-03-16T23:07:14.213Z,150226.13
2023-03-16T23:09:40.630Z,150202.19
2023-03-16T23:12:20.321Z,150205.97
2023-03-16T23:14:46.287Z,150203.44
2023-03-16T23:17:18.009Z,150209.72
2023-03-16T23:19:45.219Z,150208.47
2023-03-16T23:22:11.474Z,150202.19
2023-03-16T23:24:37.559Z,150216.03
2023-03-16T23:27:04.099Z,150202.19
2023-03-16T23:29:30.177Z,150217.28
2023-03-16T23:31:56.120Z,150229.91
2023-03-16T23:34:24.326Z,150221.09
2023-03-16T23:36:50.963Z,150219.84
2023-03-16T23:39:17.700Z,150205.97
2023-03-16T23:41:46.266Z,150237.50
2023-03-16T23:44:21.200Z,150246.31
2023-03-16T23:46:47.211Z,150208.47
2023-03-16T23:49:22.993Z,150193.34
2023-03-16T23:51:50.204Z,150187.03
2023-03-16T23:54:22.471Z,150238.75
2023-03-16T23:56:48.836Z,150222.34
2023-03-16T23:59:15.684Z,150231.16
